Time;durP1;ratioP1;P1;durP2;ratioP2;P2;SDS_P1;SDS_P2;PMS_P1;PMS_P2;Temp;Humidity;BMP_temperature;BMP_pressure;BME280_temperature;BME280_humidity;BME280_pressure;Samples;Min_cycle;Max_cycle;Signal;HPM_P1;HPM_P2
2022/05/07 00:02:17;;;;;;;5.00;2.53;;;14.90;99.90;;;;;;5054259;28;20049;-69
2022/05/07 00:04:44;;;;;;;5.68;2.42;;;14.70;99.90;;;;;;5053983;28;20048;-68
2022/05/07 00:07:11;;;;;;;6.72;3.33;;;14.70;99.90;;;;;;5054805;28;20045;-69
2022/05/07 00:09:38;;;;;;;4.10;3.05;;;14.60;99.90;;;;;;5054727;28;20047;-69
2022/05/07 00:12:06;;;;;;;6.90;2.75;;;14.50;99.90;;;;;;5053881;28;20086;-69
2022/05/07 00:14:33;;;;;;;4.38;2.60;;;14.40;99.90;;;;;;5053454;28;20036;-69
2022/05/07 00:19:47;;;;;;;6.53;3.35;;;14.20;99.90;;;;;;5054582;28;20040;-69
2022/05/07 00:22:15;;;;;;;4.72;2.97;;;14.20;99.90;;;;;;5054978;28;20075;-69
2022/05/07 00:24:41;;;;;;;5.30;3.13;;;14.10;99.90;;;;;;5054494;28;20041;-72
2022/05/07 00:27:09;;;;;;;5.15;3.50;;;14.10;99.90;;;;;;5037087;28;20048;-66
2022/05/07 00:29:36;;;;;;;12.65;7.22;;;14.00;99.90;;;;;;5053159;28;20037;-69
2022/05/07 00:32:03;;;;;;;61.75;53.17;;;14.00;99.90;;;;;;5054428;28;20055;-76
2022/05/07 00:34:31;;;;;;;7.65;6.57;;;14.00;99.90;;;;;;5053437;28;20479;-77
2022/05/07 00:36:57;;;;;;;7.80;4.80;;;13.90;99.90;;;;;;5052946;28;20044;-72
2022/05/07 00:39:25;;;;;;;4.93;3.25;;;13.90;99.90;;;;;;5053543;28;20040;-77
2022/05/07 00:41:53;;;;;;;4.45;2.78;;;13.80;99.90;;;;;;5054386;28;20045;-76
2022/05/07 00:44:21;;;;;;;4.88;2.58;;;13.70;99.90;;;;;;5052872;28;20504;-76
2022/05/07 00:46:48;;;;;;;15.20;11.50;;;13.70;99.90;;;;;;5054024;28;20487;-71
2022/05/07 00:49:15;;;;;;;15.15;11.88;;;13.70;99.90;;;;;;5054816;28;20380;-70
2022/05/07 00:51:42;;;;;;;35.22;31.48;;;13.70;99.90;;;;;;5053750;28;20051;-79
2022/05/07 00:54:09;;;;;;;8.82;4.45;;;13.70;99.90;;;;;;5054505;28;20124;-80
2022/05/07 00:56:37;;;;;;;4.22;2.92;;;13.60;99.90;;;;;;5052751;28;20436;-78
2022/05/07 00:59:05;;;;;;;4.03;2.65;;;13.60;99.90;;;;;;5054190;28;20045;-76
2022/05/07 01:01:32;;;;;;;4.43;2.78;;;13.60;99.90;;;;;;5052844;28;20041;-74
2022/05/07 01:03:59;;;;;;;3.92;2.35;;;13.60;99.90;;;;;;5053738;28;20052;-77
2022/05/07 01:06:26;;;;;;;3.53;2.30;;;13.60;99.90;;;;;;5052636;28;20127;-70
2022/05/07 01:08:53;;;;;;;3.03;2.13;;;13.60;99.90;;;;;;5053735;28;20045;-70
2022/05/07 01:11:20;;;;;;;5.07;2.95;;;13.60;99.90;;;;;;5053902;28;20048;-71
2022/05/07 01:13:47;;;;;;;37.70;29.25;;;13.60;99.90;;;;;;5052267;28;20037;-69
2022/05/07 01:16:14;;;;;;;13.00;10.88;;;13.60;99.90;;;;;;5052612;28;20053;-67
2022/05/07 01:18:42;;;;;;;6.47;4.45;;;13.70;99.90;;;;;;5052623;28;20049;-73
2022/05/07 01:21:13;;;;;;;5.97;3.25;;;13.70;99.90;;;;;;5053374;28;20041;-73
2022/05/07 01:23:44;;;;;;;5.68;2.75;;;13.70;99.90;;;;;;5053355;28;20044;-72
2022/05/07 01:26:11;;;;;;;3.70;2.05;;;13.70;99.90;;;;;;5052736;28;20045;-72
2022/05/07 01:28:38;;;;;;;3.22;2.35;;;13.70;99.90;;;;;;5053963;28;20041;-74
2022/05/07 01:31:05;;;;;;;3.88;2.70;;;13.70;99.90;;;;;;5053584;28;20056;-83
2022/05/07 01:33:33;;;;;;;7.32;2.47;;;13.70;99.90;;;;;;5052969;28;20464;-76
2022/05/07 01:36:04;;;;;;;7.53;4.32;;;13.70;99.90;;;;;;5053171;28;20431;-68
2022/05/07 01:38:31;;;;;;;15.27;11.73;;;13.70;99.90;;;;;;5054374;28;20044;-69
2022/05/07 01:40:59;;;;;;;28.05;20.38;;;13.80;99.90;;;;;;5053579;28;20048;-73
2022/05/07 01:43:32;;;;;;;8.02;4.47;;;13.70;99.90;;;;;;5052286;28;20067;-69
2022/05/07 01:46:02;;;;;;;7.75;3.00;;;13.70;99.90;;;;;;5052109;28;20045;-75
2022/05/07 01:48:29;;;;;;;4.63;2.63;;;13.70;99.90;;;;;;5038899;28;20048;-74
2022/05/07 01:50:56;;;;;;;4.95;2.10;;;13.70;99.90;;;;;;5060170;28;20037;-70
2022/05/07 01:53:23;;;;;;;5.20;2.53;;;13.70;99.90;;;;;;5060106;28;20400;-79
2022/05/07 01:55:50;;;;;;;4.53;2.60;;;13.60;99.90;;;;;;5059017;28;20049;-65
2022/05/07 01:58:17;;;;;;;117.45;95.47;;;13.60;99.90;;;;;;5059695;28;20044;-63
2022/05/07 02:00:43;;;;;;;628.67;439.50;;;13.60;99.90;;;;;;5059653;28;20045;-71
2022/05/07 02:03:10;;;;;;;91.95;75.35;;;13.70;99.90;;;;;;5058811;28;20045;-72
2022/05/07 02:05:37;;;;;;;34.40;26.85;;;13.70;99.90;;;;;;5059619;28;20127;-71
2022/05/07 02:08:04;;;;;;;12.48;10.02;;;13.60;99.90;;;;;;5058456;28;20044;-70
2022/05/07 02:10:31;;;;;;;9.57;6.95;;;13.60;99.90;;;;;;5060497;28;20041;-70
2022/05/07 02:13:01;;;;;;;8.93;4.10;;;13.60;99.90;;;;;;5059946;28;20048;-70
2022/05/07 02:15:28;;;;;;;5.05;3.10;;;13.60;99.90;;;;;;5059642;28;20128;-69
2022/05/07 02:17:56;;;;;;;4.57;2.50;;;13.60;99.90;;;;;;5059853;28;20423;-69
2022/05/07 02:20:23;;;;;;;6.07;2.70;;;13.60;99.90;;;;;;5059566;28;20083;-69
2022/05/07 02:22:55;;;;;;;5.13;2.20;;;13.60;99.90;;;;;;5058566;28;20052;-69
2022/05/07 02:25:23;;;;;;;4.20;3.20;;;13.70;99.90;;;;;;5060329;28;20045;-69
2022/05/07 02:27:50;;;;;;;4.10;2.78;;;13.70;99.90;;;;;;5058283;28;20052;-69
2022/05/07 02:30:19;;;;;;;4.05;3.17;;;13.70;99.90;;;;;;5060554;28;20045;-72
2022/05/07 02:32:49;;;;;;;5.20;4.05;;;13.70;99.90;;;;;;5059278;28;20056;-63
2022/05/07 02:35:16;;;;;;;25.73;19.38;;;13.70;99.90;;;;;;5059808;28;20040;-77
2022/05/07 02:37:43;;;;;;;139.70;120.38;;;13.80;99.90;;;;;;5059564;28;20041;-72
2022/05/07 02:40:10;;;;;;;19.20;14.45;;;13.80;99.90;;;;;;5058437;28;20091;-72
2022/05/07 02:42:37;;;;;;;9.55;5.22;;;13.80;99.90;;;;;;5058558;28;20068;-71
2022/05/07 02:45:08;;;;;;;4.47;3.22;;;13.80;99.90;;;;;;5059754;28;20041;-71
2022/05/07 02:47:36;;;;;;;4.32;2.70;;;13.80;99.90;;;;;;5059452;28;20045;-71
2022/05/07 02:50:04;;;;;;;5.20;3.20;;;13.80;99.90;;;;;;5059165;28;20567;-72
2022/05/07 02:52:33;;;;;;;5.80;4.00;;;13.80;99.90;;;;;;5060110;28;20045;-72
2022/05/07 02:55:03;;;;;;;5.68;3.40;;;13.80;99.90;;;;;;5059106;28;20045;-60
2022/05/07 02:57:30;;;;;;;35.72;31.42;;;13.90;99.90;;;;;;5058689;28;20468;-71
2022/05/07 02:59:57;;;;;;;309.08;276.90;;;13.90;99.90;;;;;;5040298;28;20052;-73
2022/05/07 03:02:26;;;;;;;19.77;17.65;;;13.90;99.90;;;;;;5056173;28;20389;-74
2022/05/07 03:04:53;;;;;;;10.48;8.13;;;13.90;99.90;;;;;;5056456;28;20048;-71
2022/05/07 03:07:22;;;;;;;6.32;5.45;;;13.90;99.90;;;;;;5057645;28;20110;-71
2022/05/07 03:09:49;;;;;;;5.80;4.43;;;13.80;99.90;;;;;;5038776;28;20485;-71
2022/05/07 03:12:16;;;;;;;5.18;3.30;;;13.80;99.90;;;;;;5038096;28;20465;-70
2022/05/07 03:14:43;;;;;;;4.63;2.80;;;13.80;99.90;;;;;;5056192;28;20049;-70
2022/05/07 03:17:10;;;;;;;3.33;2.83;;;13.80;99.90;;;;;;5056602;28;20054;-70
2022/05/07 03:19:37;;;;;;;5.63;3.03;;;13.80;99.90;;;;;;5055729;28;20037;-70
2022/05/07 03:22:04;;;;;;;5.95;3.13;;;13.80;99.90;;;;;;5056012;28;20045;-70
2022/05/07 03:24:30;;;;;;;3.40;2.80;;;13.80;99.90;;;;;;5055284;28;20045;-71
2022/05/07 03:26:57;;;;;;;4.97;2.97;;;13.80;99.90;;;;;;5056699;28;20048;-71
2022/05/07 03:29:24;;;;;;;5.05;2.85;;;13.80;99.90;;;;;;5054651;28;20049;-71
2022/05/07 03:31:51;;;;;;;4.68;3.53;;;13.80;99.90;;;;;;5055467;28;20602;-71
2022/05/07 03:34:18;;;;;;;4.28;3.10;;;13.90;99.90;;;;;;5055711;28;20069;-70
2022/05/07 03:36:45;;;;;;;4.78;3.20;;;13.90;99.90;;;;;;5055717;28;20049;-70
2022/05/07 03:39:13;;;;;;;4.88;3.17;;;13.90;99.90;;;;;;5056175;28;20049;-71
2022/05/07 03:41:39;;;;;;;5.97;3.78;;;13.90;99.90;;;;;;5055458;28;20044;-70
2022/05/07 03:44:06;;;;;;;4.50;3.38;;;13.90;99.90;;;;;;5055136;28;20052;-70
2022/05/07 03:46:33;;;;;;;3.83;2.95;;;13.90;99.90;;;;;;5056321;28;20388;-70
2022/05/07 03:49:00;;;;;;;5.30;3.33;;;13.90;99.90;;;;;;5054246;28;20045;-71
2022/05/07 03:51:27;;;;;;;6.82;2.92;;;13.90;99.90;;;;;;5055112;28;20488;-70
2022/05/07 03:53:54;;;;;;;3.30;3.00;;;13.90;99.90;;;;;;5037625;28;20076;-70
2022/05/07 03:56:21;;;;;;;4.82;3.20;;;13.90;99.90;;;;;;5055012;28;20049;-70
2022/05/07 03:58:49;;;;;;;5.60;3.35;;;13.90;99.90;;;;;;5055004;28;20436;-70
2022/05/07 04:01:16;;;;;;;6.53;3.28;;;13.90;99.90;;;;;;5055213;28;20045;-70
2022/05/07 04:03:43;;;;;;;4.45;2.95;;;13.80;99.90;;;;;;5054997;28;20091;-70
2022/05/07 04:06:10;;;;;;;3.88;3.03;;;13.90;99.90;;;;;;5055168;28;20048;-70
2022/05/07 04:08:36;;;;;;;5.20;3.35;;;13.80;99.90;;;;;;5055117;28;20064;-70
2022/05/07 04:11:03;;;;;;;5.00;3.53;;;13.90;99.90;;;;;;5054766;28;20048;-70
2022/05/07 04:13:30;;;;;;;3.88;2.90;;;13.90;99.90;;;;;;5055492;28;20037;-70
2022/05/07 04:15:57;;;;;;;6.40;3.33;;;13.90;99.90;;;;;;5053784;28;20048;-70
2022/05/07 04:18:24;;;;;;;3.80;2.58;;;13.90;99.90;;;;;;5055754;28;20049;-70
2022/05/07 04:20:51;;;;;;;5.03;3.38;;;13.90;99.90;;;;;;5054590;28;20041;-70
2022/05/07 04:23:18;;;;;;;4.25;2.85;;;13.90;99.90;;;;;;5054497;28;20053;-71
2022/05/07 04:25:45;;;;;;;4.00;3.25;;;13.90;99.90;;;;;;5054518;28;20063;-71
2022/05/07 04:28:12;;;;;;;3.72;3.00;;;13.90;99.90;;;;;;5054721;28;20045;-71
2022/05/07 04:30:39;;;;;;;5.60;4.03;;;13.90;99.90;;;;;;5054686;28;20044;-71
2022/05/07 04:33:06;;;;;;;5.00;3.78;;;13.90;99.90;;;;;;5054280;28;20071;-71
2022/05/07 04:35:34;;;;;;;3.97;3.13;;;13.90;99.90;;;;;;5053406;28;20041;-70
2022/05/07 04:38:01;;;;;;;4.00;3.33;;;13.90;99.90;;;;;;5054784;28;20037;-70
2022/05/07 04:40:29;;;;;;;6.65;4.50;;;13.90;99.90;;;;;;5054186;28;20095;-71
2022/05/07 04:42:56;;;;;;;6.30;4.13;;;13.90;99.90;;;;;;5052941;28;20388;-70
2022/05/07 04:45:23;;;;;;;5.22;3.55;;;13.90;99.90;;;;;;5054681;28;20476;-71
2022/05/07 04:47:49;;;;;;;3.95;3.40;;;13.90;99.90;;;;;;5054095;28;20048;-71
2022/05/07 04:50:16;;;;;;;4.85;3.80;;;13.90;99.90;;;;;;5053996;28;20049;-70
2022/05/07 04:52:43;;;;;;;5.47;3.53;;;13.90;99.90;;;;;;5052748;28;20067;-71
2022/05/07 04:55:10;;;;;;;3.78;3.08;;;13.90;99.90;;;;;;5055054;28;20045;-70
2022/05/07 04:57:37;;;;;;;4.47;3.78;;;13.90;99.90;;;;;;5053197;28;20041;-70
2022/05/07 05:00:05;;;;;;;6.32;3.58;;;13.90;99.90;;;;;;5054132;28;20091;-71
2022/05/07 05:02:32;;;;;;;5.07;3.60;;;13.90;99.90;;;;;;5053636;28;20041;-71
2022/05/07 05:04:59;;;;;;;9.55;5.03;;;13.90;99.90;;;;;;5054826;28;20123;-71
2022/05/07 05:07:26;;;;;;;5.20;3.95;;;14.00;99.90;;;;;;5054539;28;20052;-71
2022/05/07 05:09:53;;;;;;;5.75;4.18;;;14.00;99.90;;;;;;5054023;28;20052;-70
2022/05/07 05:12:22;;;;;;;6.18;4.15;;;14.00;99.90;;;;;;5053302;28;20114;-71
2022/05/07 05:15:08;;;;;;;4.88;4.10;;;13.90;99.90;;;;;;5052316;28;20047;-71
2022/05/07 05:17:37;;;;;;;5.35;3.80;;;14.00;99.90;;;;;;5053708;28;20147;-70
2022/05/07 05:20:04;;;;;;;6.70;3.90;;;14.00;99.90;;;;;;5052384;28;20063;-70
2022/05/07 05:22:31;;;;;;;7.45;4.30;;;14.00;99.90;;;;;;5052339;28;20049;-70
2022/05/07 05:24:58;;;;;;;6.55;4.10;;;14.00;99.90;;;;;;5053359;28;20362;-70
2022/05/07 05:27:25;;;;;;;6.80;4.82;;;14.00;99.90;;;;;;5052287;28;20057;-70
2022/05/07 05:29:52;;;;;;;6.70;3.65;;;14.00;99.90;;;;;;5054221;28;20052;-70
2022/05/07 05:32:19;;;;;;;5.35;3.88;;;14.00;99.90;;;;;;5053616;28;20468;-70
2022/05/07 05:34:49;;;;;;;5.60;4.15;;;14.10;99.90;;;;;;5053158;28;20045;-70
2022/05/07 05:37:16;;;;;;;5.20;3.90;;;14.10;99.90;;;;;;5053213;28;20045;-70
2022/05/07 05:39:44;;;;;;;7.85;5.05;;;14.00;99.90;;;;;;5053609;28;20048;-71
2022/05/07 05:42:11;;;;;;;6.68;4.40;;;14.00;99.90;;;;;;5052377;28;20067;-71
2022/05/07 05:44:39;;;;;;;6.53;4.13;;;14.00;99.90;;;;;;5053708;28;20460;-71
2022/05/07 05:47:07;;;;;;;6.00;4.30;;;14.00;99.90;;;;;;5054034;28;20388;-71
2022/05/07 05:49:34;;;;;;;5.97;5.38;;;13.90;99.90;;;;;;5051992;28;20045;-71
2022/05/07 05:52:05;;;;;;;7.35;6.00;;;13.90;99.90;;;;;;5052262;28;20388;-72
2022/05/07 05:54:32;;;;;;;7.03;6.20;;;13.90;99.90;;;;;;5052215;28;20468;-71
2022/05/07 05:56:59;;;;;;;9.48;6.70;;;13.80;99.90;;;;;;5053289;28;20041;-71
2022/05/07 05:59:26;;;;;;;8.15;6.40;;;13.80;99.90;;;;;;5052318;28;20041;-71
2022/05/07 06:01:53;;;;;;;10.07;6.60;;;13.80;99.90;;;;;;5051933;28;20392;-70
2022/05/07 06:04:20;;;;;;;11.02;7.43;;;13.80;99.90;;;;;;5053837;28;20045;-71
2022/05/07 06:06:47;;;;;;;8.07;6.50;;;13.80;99.90;;;;;;5052073;28;20041;-71
2022/05/07 06:09:14;;;;;;;10.15;7.25;;;13.90;99.90;;;;;;5052131;28;20052;-71
2022/05/07 06:11:41;;;;;;;8.25;7.13;;;13.90;99.90;;;;;;5052048;28;20488;-71
2022/05/07 06:14:08;;;;;;;8.68;7.65;;;13.90;99.90;;;;;;5051700;28;20037;-71
2022/05/07 06:16:35;;;;;;;11.88;7.28;;;14.00;99.90;;;;;;5053729;28;20056;-71
2022/05/07 06:19:03;;;;;;;10.23;7.82;;;14.00;99.90;;;;;;5053512;28;20115;-71
2022/05/07 06:21:29;;;;;;;8.75;7.30;;;14.00;99.90;;;;;;5051670;28;20041;-71
2022/05/07 06:27:28;;;;;;;10.32;7.85;;;14.00;99.90;;;;;;5051978;28;20052;-72
2022/05/07 06:29:28;;;;;;;8.40;7.40;;;14.10;99.90;;;;;;5053896;28;20037;-72
2022/05/07 06:31:55;;;;;;;8.98;7.97;;;14.10;99.90;;;;;;5053087;28;20051;-72
2022/05/07 06:34:23;;;;;;;9.05;7.30;;;14.20;99.90;;;;;;5052378;28;20041;-72
2022/05/07 06:36:51;;;;;;;8.68;7.70;;;14.20;99.90;;;;;;5056524;28;20044;-72
2022/05/07 06:39:20;;;;;;;11.02;7.72;;;14.30;99.90;;;;;;5039707;28;20048;-72
2022/05/07 06:41:48;;;;;;;7.57;6.78;;;14.40;99.90;;;;;;5055310;28;20051;-71
2022/05/07 06:44:15;;;;;;;10.00;7.53;;;14.40;99.90;;;;;;5055538;28;20211;-71
2022/05/07 06:46:42;;;;;;;7.75;7.05;;;14.50;99.90;;;;;;5056643;28;20064;-71
2022/05/07 06:49:09;;;;;;;7.43;6.53;;;14.50;99.90;;;;;;5055105;28;20045;-71
2022/05/07 06:51:36;;;;;;;8.98;6.93;;;14.50;99.90;;;;;;5055840;28;20048;-72
2022/05/07 06:54:03;;;;;;;8.82;7.43;;;14.60;99.90;;;;;;5056159;28;20053;-71
2022/05/07 06:56:30;;;;;;;9.05;7.50;;;14.70;99.90;;;;;;5054927;28;20085;-71
2022/05/07 06:58:57;;;;;;;9.07;7.80;;;14.80;99.90;;;;;;5055053;28;20044;-71
2022/05/07 07:01:23;;;;;;;9.20;6.53;;;14.90;99.90;;;;;;5057015;28;20041;-71
2022/05/07 07:03:50;;;;;;;8.15;6.50;;;14.90;99.90;;;;;;5055977;28;20135;-71
2022/05/07 07:06:17;;;;;;;8.57;6.55;;;15.00;99.90;;;;;;5055959;28;20044;-71
2022/05/07 07:08:44;;;;;;;9.00;6.40;;;15.20;99.90;;;;;;5055846;28;20052;-71
2022/05/07 07:11:11;;;;;;;7.25;6.53;;;15.30;99.90;;;;;;5056160;28;20063;-71
2022/05/07 07:13:38;;;;;;;8.45;7.38;;;15.40;99.90;;;;;;5056542;28;20049;-70
2022/05/07 07:16:05;;;;;;;8.27;7.03;;;15.40;99.90;;;;;;5054901;28;20048;-70
2022/05/07 07:18:32;;;;;;;8.32;6.88;;;15.50;99.90;;;;;;5056783;28;20037;-70
2022/05/07 07:20:59;;;;;;;6.90;6.13;;;15.60;99.90;;;;;;5056721;28;20052;-70
2022/05/07 07:23:26;;;;;;;7.55;6.25;;;15.70;99.90;;;;;;5055671;28;20503;-71
2022/05/07 07:25:53;;;;;;;8.27;7.05;;;15.80;99.90;;;;;;5056408;28;20134;-71
2022/05/07 07:28:20;;;;;;;7.00;5.65;;;15.80;99.90;;;;;;5055925;28;20048;-70
2022/05/07 07:30:47;;;;;;;7.75;5.82;;;15.80;99.90;;;;;;5055837;28;20133;-70
2022/05/07 07:33:14;;;;;;;8.00;5.75;;;15.90;99.90;;;;;;5055783;28;20055;-70
2022/05/07 07:35:44;;;;;;;8.23;5.80;;;15.90;99.90;;;;;;5055501;28;20055;-70
2022/05/07 07:38:11;;;;;;;6.03;5.07;;;15.80;99.90;;;;;;5055693;28;20099;-70
2022/05/07 07:40:39;;;;;;;14.48;12.65;;;15.90;99.90;;;;;;5054430;28;20044;-73
2022/05/07 07:43:06;;;;;;;5.85;5.32;;;15.80;99.90;;;;;;5055658;28;20408;-72
2022/05/07 07:48:18;;;;;;;6.07;5.47;;;15.90;99.90;;;;;;5056125;28;20045;-72
2022/05/07 07:50:46;;;;;;;5.38;4.15;;;16.20;99.90;;;;;;5054793;28;20036;-73
2022/05/07 07:53:14;;;;;;;3.80;3.33;;;16.30;99.90;;;;;;5053906;28;20051;-72
2022/05/07 07:55:41;;;;;;;3.20;2.90;;;16.40;99.90;;;;;;5037614;28;20051;-73
2022/05/07 07:58:09;;;;;;;2.78;2.38;;;16.50;99.90;;;;;;5054042;28;20041;-72
2022/05/07 08:00:36;;;;;;;3.22;2.75;;;16.50;99.90;;;;;;5054052;28;20091;-73
2022/05/07 08:03:09;;;;;;;4.13;3.72;;;16.60;99.90;;;;;;5055175;28;20051;-73
2022/05/07 08:05:36;;;;;;;4.93;3.35;;;16.60;99.90;;;;;;5054591;28;20114;-73
2022/05/07 08:13:36;;;;;;;9.02;4.55;;;16.70;99.90;;;;;;5054636;28;20045;-72
2022/05/07 08:16:03;;;;;;;3.25;2.67;;;16.50;99.90;;;;;;5053706;28;20052;-72
2022/05/07 08:18:30;;;;;;;4.65;3.55;;;16.30;99.90;;;;;;5054535;28;20484;-72
2022/05/07 08:20:57;;;;;;;5.28;4.05;;;16.20;99.90;;;;;;5054543;28;20040;-72
2022/05/07 08:23:27;;;;;;;6.18;4.10;;;16.20;99.90;;;;;;5053622;28;20407;-72
2022/05/07 08:25:54;;;;;;;5.50;4.10;;;16.30;99.90;;;;;;5055519;28;20049;-72
2022/05/07 08:28:24;;;;;;;8.43;3.92;;;16.20;99.90;;;;;;5053485;28;20120;-72
2022/05/07 08:30:51;;;;;;;6.80;4.50;;;16.30;99.90;;;;;;5055186;28;20047;-72
2022/05/07 08:33:19;;;;;;;6.63;4.60;;;16.20;99.90;;;;;;5037007;28;20132;-73
2022/05/07 08:35:46;;;;;;;4.90;4.03;;;16.00;99.90;;;;;;5053263;28;20048;-72
2022/05/07 08:38:13;;;;;;;5.15;4.03;;;15.80;99.90;;;;;;5055263;28;20037;-72
2022/05/07 08:40:42;;;;;;;4.35;3.95;;;15.60;99.90;;;;;;5054455;28;20045;-72
2022/05/07 08:43:09;;;;;;;6.50;5.22;;;15.50;99.90;;;;;;5053717;28;20064;-73
2022/05/07 08:45:39;;;;;;;11.82;9.52;;;15.30;99.90;;;;;;5053920;28;20040;-74
2022/05/07 08:48:06;;;;;;;6.78;5.88;;;15.20;99.90;;;;;;5053093;28;20045;-74
2022/05/07 08:50:33;;;;;;;5.70;5.15;;;15.00;99.90;;;;;;5052739;28;20056;-73
2022/05/07 08:53:00;;;;;;;5.22;4.72;;;14.90;99.90;;;;;;5052954;28;20357;-73
2022/05/07 08:55:27;;;;;;;4.82;3.47;;;14.90;99.90;;;;;;5054910;28;20435;-74
2022/05/07 08:57:53;;;;;;;3.40;2.83;;;14.90;99.90;;;;;;5053501;28;20388;-74
2022/05/07 09:00:22;;;;;;;2.97;2.42;;;15.00;99.90;;;;;;5052496;28;20049;-74
2022/05/07 09:02:55;;;;;;;3.55;2.33;;;15.10;99.90;;;;;;5052507;28;20051;-74
2022/05/07 09:05:30;;;;;;;3.60;2.88;;;15.20;99.90;;;;;;5052722;28;20049;-74
2022/05/07 09:07:58;;;;;;;4.57;2.60;;;15.30;99.90;;;;;;5053628;28;20049;-73
2022/05/07 09:10:29;;;;;;;3.28;2.70;;;15.50;99.90;;;;;;5053873;28;20077;-73
2022/05/07 09:13:15;;;;;;;52.33;44.60;;;15.60;99.90;;;;;;5052629;28;20055;-73
2022/05/07 09:15:49;;;;;;;84.57;75.20;;;15.70;99.90;;;;;;5054358;28;20055;-72
2022/05/07 09:18:17;;;;;;;88.20;79.38;;;15.70;99.90;;;;;;5052607;28;20052;-72
2022/05/07 09:20:44;;;;;;;19.17;17.15;;;15.80;99.90;;;;;;5052580;28;20041;-74
2022/05/07 09:23:10;;;;;;;7.68;6.93;;;15.80;99.90;;;;;;5053366;28;20464;-73
2022/05/07 09:25:48;;;;;;;5.45;4.75;;;15.80;99.90;;;;;;5052509;28;20048;-73
2022/05/07 09:28:26;;;;;;;6.35;5.45;;;15.90;99.90;;;;;;5052490;28;20387;-73
2022/05/07 09:30:57;;;;;;;4.47;4.03;;;15.90;99.90;;;;;;5052220;28;20041;-73
2022/05/07 09:33:33;;;;;;;5.28;4.78;;;15.80;99.90;;;;;;5053272;28;20041;-73
2022/05/07 09:36:13;;;;;;;7.40;4.30;;;15.80;99.90;;;;;;5051880;28;20044;-73
2022/05/07 09:38:39;;;;;;;5.93;5.00;;;16.00;99.90;;;;;;5053424;28;20052;-73
2022/05/07 09:41:06;;;;;;;5.53;4.72;;;16.20;99.90;;;;;;5052963;28;20045;-73
2022/05/07 09:43:33;;;;;;;5.85;5.25;;;16.20;99.90;;;;;;5052731;28;20045;-73
2022/05/07 09:46:00;;;;;;;5.72;5.22;;;16.30;99.90;;;;;;5051916;28;20041;-70
2022/05/07 09:48:28;;;;;;;6.38;5.05;;;16.40;99.90;;;;;;5052996;28;20379;-72
2022/05/07 09:50:55;;;;;;;24.00;21.60;;;16.40;99.90;;;;;;5053038;28;20044;-67
2022/05/07 09:58:52;;;;;;;6.38;5.78;;;16.40;99.90;;;;;;5053249;28;20056;-67
2022/05/07 10:01:20;;;;;;;6.40;5.80;;;16.50;99.90;;;;;;5051779;28;20056;-69
2022/05/07 10:04:04;;;;;;;9.35;5.07;;;16.60;99.90;;;;;;5053165;28;20472;-70
2022/05/07 10:06:57;;;;;;;7.53;5.18;;;16.60;99.90;;;;;;5053810;28;20044;-70
2022/05/07 10:09:46;;;;;;;7.95;5.15;;;16.80;99.90;;;;;;5053474;28;20056;-70
2022/05/07 10:12:31;;;;;;;6.75;5.88;;;17.00;99.90;;;;;;5057565;28;20044;-70
2022/05/07 10:15:09;;;;;;;6.97;5.47;;;17.20;99.90;;;;;;5056944;28;20041;-72
2022/05/07 10:17:36;;;;;;;7.63;5.43;;;17.30;99.90;;;;;;5055891;28;20045;-71
2022/05/07 10:20:09;;;;;;;8.50;5.72;;;17.40;99.90;;;;;;5057104;28;20041;-71
2022/05/07 10:22:39;;;;;;;6.28;5.68;;;17.30;99.90;;;;;;5057128;28;20080;-72
2022/05/07 10:25:10;;;;;;;7.95;5.47;;;17.20;99.90;;;;;;5055857;28;20053;-72
2022/05/07 10:27:44;;;;;;;6.72;5.53;;;17.30;99.90;;;;;;5055544;28;20508;-72
2022/05/07 10:30:15;;;;;;;8.65;5.70;;;17.30;99.90;;;;;;5040160;28;20052;-69
2022/05/07 10:32:57;;;;;;;11.75;8.75;;;17.40;99.90;;;;;;5057018;28;20044;-74
2022/05/07 10:35:47;;;;;;;9.18;7.03;;;17.40;99.90;;;;;;5056805;28;20041;-74
2022/05/07 10:38:38;;;;;;;7.57;4.70;;;17.40;99.90;;;;;;5057545;28;20045;-74
2022/05/07 10:41:12;;;;;;;6.03;4.07;;;17.50;99.90;;;;;;5057512;28;20048;-74
2022/05/07 10:43:42;;;;;;;5.43;3.75;;;17.50;99.90;;;;;;5055206;28;20049;-74
2022/05/07 10:46:11;;;;;;;5.72;5.15;;;17.50;99.90;;;;;;5055134;28;20045;-74
2022/05/07 10:49:04;;;;;;;5.68;4.45;;;17.50;99.90;;;;;;5055471;28;20484;-74
2022/05/07 10:51:37;;;;;;;8.02;5.88;;;17.60;99.90;;;;;;5055870;28;20041;-74
2022/05/07 10:54:21;;;;;;;6.38;4.63;;;17.60;99.90;;;;;;5056336;28;20057;-74
2022/05/07 10:56:50;;;;;;;4.63;4.15;;;17.70;99.90;;;;;;5056128;28;20099;-73
2022/05/07 10:59:18;;;;;;;5.00;4.50;;;17.60;99.90;;;;;;5054835;28;20485;-73
2022/05/07 11:01:45;;;;;;;5.53;4.93;;;17.60;99.90;;;;;;5038251;28;20045;-74
2022/05/07 11:04:13;;;;;;;4.85;4.35;;;17.80;99.90;;;;;;5055548;28;20357;-74
2022/05/07 11:06:43;;;;;;;5.47;4.88;;;17.90;99.90;;;;;;5056733;28;20044;-73
2022/05/07 11:09:23;;;;;;;7.45;5.68;;;18.00;99.90;;;;;;5056216;28;20369;-74
2022/05/07 11:11:54;;;;;;;5.60;5.00;;;18.20;99.90;;;;;;5055741;28;20376;-74
2022/05/07 11:14:25;;;;;;;5.90;5.40;;;18.40;99.90;;;;;;5055338;28;20079;-73
2022/05/07 11:16:52;;;;;;;6.32;5.50;;;18.40;99.90;;;;;;5054622;28;20048;-71
2022/05/07 11:19:29;;;;;;;7.75;5.93;;;18.60;99.90;;;;;;5054969;28;20052;-72
2022/05/07 11:21:57;;;;;;;8.73;7.05;;;18.70;99.90;;;;;;5054520;28;20044;-71
2022/05/07 11:24:27;;;;;;;8.73;7.28;;;18.70;99.90;;;;;;5055397;28;20429;-72
2022/05/07 11:27:05;;;;;;;13.82;12.43;;;18.60;99.90;;;;;;5056637;28;20108;-64
2022/05/07 11:29:33;;;;;;;29.20;26.15;;;18.70;99.90;;;;;;5054214;28;20037;-62
2022/05/07 11:32:05;;;;;;;16.60;13.70;;;18.80;99.90;;;;;;5054098;28;20488;-62
2022/05/07 11:34:32;;;;;;;11.13;9.20;;;19.00;99.90;;;;;;5054996;28;20135;-63
2022/05/07 11:37:19;;;;;;;9.38;8.40;;;18.90;99.90;;;;;;5054867;28;20056;-62
2022/05/07 11:39:47;;;;;;;8.85;7.80;;;18.80;99.90;;;;;;5055594;28;20393;-62
2022/05/07 11:42:31;;;;;;;8.75;7.85;;;18.30;99.90;;;;;;5054824;28;20047;-62
2022/05/07 11:45:29;;;;;;;8.45;7.65;;;17.80;99.90;;;;;;5041262;28;20370;-62
2022/05/07 11:48:18;;;;;;;10.25;9.25;;;17.50;99.90;;;;;;5054814;28;20451;-62
2022/05/07 11:50:53;;;;;;;8.80;7.90;;;17.20;99.90;;;;;;5055313;28;20047;-63
2022/05/07 11:53:22;;;;;;;8.63;7.72;;;17.00;99.90;;;;;;5053694;28;20062;-63
2022/05/07 11:55:49;;;;;;;8.85;7.95;;;16.90;99.90;;;;;;5053987;28;20373;-63
2022/05/07 11:58:23;;;;;;;10.00;8.90;;;17.00;99.90;;;;;;5055148;28;20389;-63
2022/05/07 12:00:55;;;;;;;8.35;7.55;;;17.10;99.90;;;;;;5053614;28;20114;-63
2022/05/07 12:03:26;;;;;;;9.02;7.40;;;17.20;99.90;;;;;;5055594;28;20051;-63
2022/05/07 12:05:55;;;;;;;8.70;7.80;;;17.30;99.90;;;;;;5038103;28;20041;-64
2022/05/07 12:08:33;;;;;;;11.80;10.60;;;17.40;99.90;;;;;;5054568;28;20360;-63
2022/05/07 12:11:00;;;;;;;14.13;10.88;;;17.50;99.90;;;;;;5054420;28;20158;-63
2022/05/07 12:13:28;;;;;;;9.57;8.57;;;17.50;99.90;;;;;;5053994;28;20045;-63
2022/05/07 12:18:46;;;;;;;6.80;6.10;;;17.90;99.90;;;;;;5054883;28;20041;-63
2022/05/07 12:21:13;;;;;;;7.22;5.32;;;18.10;99.90;;;;;;5054411;28;20508;-63
2022/05/07 12:31:57;;;;;;;6.22;5.03;;;17.70;99.90;;;;;;5054555;28;20464;-63
2022/05/07 12:34:29;;;;;;;5.82;5.07;;;17.60;99.90;;;;;;5037688;28;20132;-63
2022/05/07 12:36:56;;;;;;;6.78;5.15;;;17.60;99.90;;;;;;5054400;28;20041;-63
2022/05/07 12:39:23;;;;;;;4.72;4.13;;;17.60;99.90;;;;;;5053284;28;20051;-64
2022/05/07 12:41:50;;;;;;;9.45;8.35;;;17.70;99.90;;;;;;5054886;28;20063;-68
2022/05/07 12:44:18;;;;;;;25.48;22.83;;;17.80;99.90;;;;;;5053106;28;20064;-70
2022/05/07 12:46:45;;;;;;;8.20;7.10;;;18.00;99.90;;;;;;5053721;28;20338;-70
2022/05/07 12:49:11;;;;;;;5.10;4.60;;;18.20;99.90;;;;;;5053989;28;20468;-70
2022/05/07 12:51:38;;;;;;;5.53;4.80;;;18.20;99.90;;;;;;5053962;28;20190;-71
2022/05/07 12:54:06;;;;;;;6.03;4.32;;;18.30;99.90;;;;;;5052932;28;20056;-71
2022/05/07 12:56:34;;;;;;;4.88;4.30;;;18.30;99.90;;;;;;5052613;28;20047;-70
2022/05/07 12:59:01;;;;;;;4.93;4.13;;;18.20;99.90;;;;;;5054112;28;20379;-70
2022/05/07 13:01:28;;;;;;;5.30;4.20;;;18.20;99.90;;;;;;5054091;28;20045;-71
2022/05/07 13:03:55;;;;;;;5.65;4.47;;;18.10;99.90;;;;;;5052936;28;20132;-71
2022/05/07 13:06:21;;;;;;;5.38;4.65;;;18.20;99.90;;;;;;5054033;28;20049;-71
2022/05/07 13:08:51;;;;;;;6.03;4.80;;;18.40;99.90;;;;;;5052443;28;20043;-71
2022/05/07 13:11:18;;;;;;;5.20;4.50;;;18.50;99.90;;;;;;5053456;28;20135;-70
2022/05/07 13:13:45;;;;;;;4.72;4.10;;;18.70;99.90;;;;;;5053333;28;20045;-70
2022/05/07 13:16:12;;;;;;;4.68;3.70;;;18.90;99.90;;;;;;5053877;28;20052;-70
2022/05/07 13:18:39;;;;;;;4.90;4.40;;;19.00;99.90;;;;;;5053737;28;20045;-70
2022/05/07 13:21:06;;;;;;;4.45;4.05;;;19.10;99.90;;;;;;5054230;28;20392;-70
2022/05/07 13:23:33;;;;;;;7.60;6.70;;;19.00;99.90;;;;;;5053897;28;20465;-71